Terminal Aerodrome Forecast
Issued by NWS

Home | Current Version | Previous Version | Text Only | Print | Product List | Glossary On
Versions: 1 2 3 4 5 6 7 8 9 10 11 12 13 14 15 16 17 18 19
000
FTUS44 KOUN 212320
TAFGAG
TAF
KGAG 212320Z 2200/2224 03010KT 5SM -SNPL OVC015
     FM220300 03005KT 6SM -FZDZ OVC007
     FM221700 17007KT P6SM OVC015=

USA.gov is the U.S. government's official web portal to all federal, state and local government web resources and services.